createdAt,value
2018-10-06T00:00:52.070Z,4.87
2018-10-06T00:03:21.241Z,4.60
2018-10-06T00:05:50.442Z,5.20
2018-10-06T00:08:19.681Z,5.20
2018-10-06T00:10:48.932Z,4.75
2018-10-06T00:13:18.132Z,5.25
2018-10-06T00:15:47.327Z,5.15
2018-10-06T00:18:16.526Z,5.10
2018-10-06T00:20:45.694Z,4.92
2018-10-06T00:23:14.903Z,5.20
2018-10-06T00:25:44.106Z,5.22
2018-10-06T00:28:13.324Z,5.20
2018-10-06T00:30:42.554Z,5.17
2018-10-06T00:33:11.747Z,4.97
2018-10-06T00:35:41.099Z,5.08
2018-10-06T00:38:10.282Z,5.05
2018-10-06T00:40:39.446Z,5.12
2018-10-06T00:43:08.657Z,6.05
2018-10-06T00:45:37.835Z,5.67
2018-10-06T00:48:07.507Z,5.62
2018-10-06T00:50:36.683Z,5.08
2018-10-06T00:53:05.868Z,4.72
2018-10-06T00:55:35.033Z,5.08
2018-10-06T00:58:04.337Z,5.42
2018-10-06T01:00:33.544Z,5.25
2018-10-06T01:03:02.743Z,5.17
2018-10-06T01:05:31.915Z,5.92
2018-10-06T01:08:01.100Z,5.28
2018-10-06T01:10:30.307Z,5.33
2018-10-06T01:12:59.495Z,5.20
2018-10-06T01:15:28.666Z,5.65
2018-10-06T01:17:57.939Z,4.87
2018-10-06T01:20:27.210Z,5.35
2018-10-06T01:22:56.395Z,5.50
2018-10-06T01:25:25.555Z,4.95
2018-10-06T01:27:54.765Z,5.03
2018-10-06T01:30:23.926Z,5.10
2018-10-06T01:32:53.134Z,4.80
2018-10-06T01:35:22.323Z,5.12
2018-10-06T01:37:51.604Z,4.53
2018-10-06T01:40:20.779Z,4.90
2018-10-06T01:42:49.978Z,4.53
2018-10-06T01:45:19.187Z,5.55
2018-10-06T01:47:48.384Z,5.15
2018-10-06T01:50:17.582Z,5.62
2018-10-06T01:52:46.948Z,5.45
2018-10-06T01:55:16.112Z,4.70
2018-10-06T01:57:45.339Z,4.95
2018-10-06T02:00:14.500Z,4.47
2018-10-06T02:02:43.690Z,5.05
2018-10-06T02:05:12.903Z,5.22
2018-10-06T02:07:42.123Z,5.20
2018-10-06T02:10:11.290Z,4.83
2018-10-06T02:12:40.473Z,4.70
2018-10-06T02:15:09.674Z,5.30
2018-10-06T02:17:38.855Z,4.67
2018-10-06T02:20:08.106Z,4.60
2018-10-06T02:22:37.299Z,4.83
2018-10-06T02:25:06.886Z,4.67
2018-10-06T02:27:36.136Z,5.22
2018-10-06T02:30:05.432Z,5.03
2018-10-06T02:32:34.567Z,5.72
2018-10-06T02:35:03.762Z,4.72
2018-10-06T02:37:32.946Z,5.47
2018-10-06T02:40:02.102Z,5.75
2018-10-06T02:42:31.320Z,5.25
2018-10-06T02:45:00.505Z,5.03
2018-10-06T02:47:29.751Z,5.15
2018-10-06T02:49:58.921Z,5.08
2018-10-06T02:52:28.098Z,5.42
2018-10-06T02:54:57.271Z,4.75
2018-10-06T02:57:26.535Z,5.37
2018-10-06T02:59:55.702Z,5.62
2018-10-06T03:02:24.891Z,5.83
2018-10-06T03:04:54.067Z,5.00
2018-10-06T03:07:23.250Z,5.12
2018-10-06T03:09:52.434Z,5.50
2018-10-06T03:12:21.635Z,5.58
2018-10-06T03:14:50.801Z,5.55
2018-10-06T03:17:19.979Z,5.80
2018-10-06T03:19:49.154Z,5.72
2018-10-06T03:22:18.350Z,5.58
2018-10-06T03:24:47.558Z,5.65
2018-10-06T03:27:16.751Z,6.17
2018-10-06T03:29:45.957Z,5.35
2018-10-06T03:32:15.139Z,5.80
2018-10-06T03:34:44.993Z,6.05
2018-10-06T03:37:14.224Z,5.95
2018-10-06T03:39:43.415Z,5.97
2018-10-06T03:42:12.609Z,6.17
2018-10-06T03:44:41.908Z,6.50
2018-10-06T03:47:11.235Z,5.50
2018-10-06T03:49:40.434Z,6.30
2018-10-06T03:52:09.611Z,6.00
2018-10-06T03:54:38.815Z,5.92
2018-10-06T03:57:08.034Z,5.87
2018-10-06T03:59:37.222Z,5.85
2018-10-06T04:02:06.411Z,5.87
2018-10-06T04:04:35.688Z,6.83
2018-10-06T04:07:04.875Z,6.00
2018-10-06T04:09:34.055Z,6.03
2018-10-06T04:12:03.236Z,6.50
2018-10-06T04:14:32.436Z,6.75
2018-10-06T04:17:01.599Z,6.25
2018-10-06T04:19:30.794Z,6.90
2018-10-06T04:22:00.007Z,6.28
2018-10-06T04:24:29.191Z,6.35
2018-10-06T04:26:58.379Z,6.28
2018-10-06T04:29:27.587Z,6.80
2018-10-06T04:31:56.754Z,7.05
2018-10-06T04:34:25.959Z,6.80
2018-10-06T04:36:55.142Z,6.97
2018-10-06T04:39:24.417Z,6.97
2018-10-06T04:41:53.637Z,7.15
2018-10-06T04:44:22.842Z,7.55
2018-10-06T04:46:52.046Z,6.85
2018-10-06T04:49:21.247Z,6.67
2018-10-06T04:51:50.425Z,7.00
2018-10-06T04:54:19.727Z,7.12
2018-10-06T04:56:48.907Z,7.70
2018-10-06T04:59:18.118Z,7.33
2018-10-06T05:01:47.288Z,6.95
2018-10-06T05:04:16.463Z,7.20
2018-10-06T05:06:45.635Z,7.28
2018-10-06T05:09:14.835Z,7.87
2018-10-06T05:11:44.074Z,7.50
2018-10-06T05:14:13.279Z,7.53
2018-10-06T05:16:42.479Z,7.62
2018-10-06T05:19:11.695Z,7.80
2018-10-06T05:21:40.894Z,7.53
2018-10-06T05:24:10.085Z,6.83
2018-10-06T05:26:39.288Z,7.60
2018-10-06T05:29:08.517Z,7.62
2018-10-06T05:31:37.678Z,7.45
2018-10-06T05:34:06.964Z,8.18
2018-10-06T05:36:36.223Z,8.65
2018-10-06T05:39:08.547Z,7.83
2018-10-06T05:41:37.924Z,7.65
2018-10-06T05:44:07.182Z,7.30
2018-10-06T05:46:36.430Z,8.23
2018-10-06T05:49:05.792Z,7.87
2018-10-06T05:51:35.020Z,8.30
2018-10-06T05:54:04.290Z,7.87
2018-10-06T05:56:33.444Z,7.78
2018-10-06T05:59:02.706Z,7.28
2018-10-06T06:01:31.871Z,7.40
2018-10-06T06:04:01.087Z,7.45
2018-10-06T06:06:30.280Z,7.80
2018-10-06T06:08:59.555Z,7.10
2018-10-06T06:11:28.726Z,8.15
2018-10-06T06:13:57.928Z,7.95
2018-10-06T06:16:27.104Z,8.05
2018-10-06T06:18:56.505Z,7.58
2018-10-06T06:21:25.707Z,8.33
2018-10-06T06:23:55.003Z,7.42
2018-10-06T06:26:24.175Z,8.05
2018-10-06T06:28:53.350Z,8.75
2018-10-06T06:31:22.549Z,7.12
2018-10-06T06:33:51.762Z,7.25
2018-10-06T06:36:20.935Z,7.65
2018-10-06T06:38:50.121Z,7.87
2018-10-06T06:41:19.302Z,7.60
2018-10-06T06:43:48.633Z,7.40
2018-10-06T06:46:17.790Z,7.58
2018-10-06T06:48:47.073Z,7.95
2018-10-06T06:51:16.388Z,8.93
2018-10-06T06:53:45.732Z,8.65
2018-10-06T06:56:14.942Z,7.72
2018-10-06T06:58:44.142Z,8.53
2018-10-06T07:01:13.452Z,8.38
2018-10-06T07:03:42.637Z,8.65
2018-10-06T07:06:11.894Z,7.78
2018-10-06T07:08:41.095Z,8.20
2018-10-06T07:11:10.304Z,8.63
2018-10-06T07:13:40.471Z,8.10
2018-10-06T07:16:10.004Z,8.45
2018-10-06T07:18:39.613Z,8.28
2018-10-06T07:21:08.807Z,8.05
2018-10-06T07:23:38.036Z,8.58
2018-10-06T07:26:07.262Z,8.80
2018-10-06T07:28:36.469Z,7.62
2018-10-06T07:31:05.771Z,9.38
2018-10-06T07:33:35.160Z,8.40
2018-10-06T07:36:04.371Z,8.63
2018-10-06T07:38:33.555Z,7.80
2018-10-06T07:41:02.771Z,8.43
2018-10-06T07:43:32.006Z,8.30
2018-10-06T07:46:01.268Z,8.13
2018-10-06T07:48:30.467Z,8.23
2018-10-06T07:50:59.998Z,8.80
2018-10-06T07:53:29.219Z,8.48
2018-10-06T07:55:58.428Z,8.43
2018-10-06T07:58:27.662Z,8.43
2018-10-06T08:00:56.970Z,7.65
2018-10-06T08:03:26.199Z,7.55
2018-10-06T08:05:55.623Z,7.33
2018-10-06T08:08:25.145Z,7.97
2018-10-06T08:10:54.426Z,6.83
2018-10-06T08:13:23.657Z,7.70
2018-10-06T08:15:53.170Z,7.20
2018-10-06T08:18:22.977Z,7.45
2018-10-06T08:20:52.320Z,7.30
2018-10-06T08:23:21.603Z,7.28
2018-10-06T08:25:50.942Z,7.10
2018-10-06T08:28:20.149Z,7.60
2018-10-06T08:30:49.416Z,7.85
2018-10-06T08:33:18.615Z,8.08
2018-10-06T08:35:47.999Z,6.97
2018-10-06T08:38:17.250Z,7.87
2018-10-06T08:40:46.553Z,7.58
2018-10-06T08:43:15.817Z,7.08
2018-10-06T08:45:45.073Z,7.70
2018-10-06T08:48:14.366Z,6.92
2018-10-06T08:50:43.674Z,5.97
2018-10-06T08:53:12.879Z,7.72
2018-10-06T08:55:42.390Z,7.40
2018-10-06T08:58:11.657Z,7.37
2018-10-06T09:00:40.943Z,7.53
2018-10-06T09:03:10.203Z,6.83
2018-10-06T09:05:39.438Z,7.20
2018-10-06T09:08:08.643Z,7.03
2018-10-06T09:10:37.865Z,6.90
2018-10-06T09:13:07.071Z,6.58
2018-10-06T09:15:36.311Z,7.20
2018-10-06T09:18:05.603Z,7.00
2018-10-06T09:20:34.834Z,6.70
2018-10-06T09:23:04.072Z,6.60
2018-10-06T09:25:33.303Z,7.05
2018-10-06T09:28:02.528Z,7.40
2018-10-06T09:30:31.923Z,6.28
2018-10-06T09:33:01.131Z,5.90
2018-10-06T09:35:30.374Z,6.75
2018-10-06T09:37:59.638Z,6.50
2018-10-06T09:40:28.915Z,5.87
2018-10-06T09:42:58.253Z,6.15
2018-10-06T09:45:27.482Z,6.25
2018-10-06T09:47:56.783Z,6.35
2018-10-06T09:50:26.052Z,6.28
2018-10-06T09:52:55.323Z,6.15
2018-10-06T09:55:24.595Z,6.12
2018-10-06T09:57:53.871Z,6.58
2018-10-06T10:00:28.487Z,5.97
2018-10-06T10:03:03.063Z,5.37
2018-10-06T10:05:38.176Z,5.47
2018-10-06T10:08:07.827Z,5.47
2018-10-06T10:10:37.173Z,5.45
2018-10-06T10:13:06.439Z,5.58
2018-10-06T10:15:35.771Z,5.55
2018-10-06T10:18:05.220Z,5.30
2018-10-06T10:20:34.448Z,4.95
2018-10-06T10:23:03.787Z,5.30
2018-10-06T10:25:33.186Z,5.60
2018-10-06T10:28:02.419Z,5.05
2018-10-06T10:30:31.611Z,5.15
2018-10-06T10:33:00.859Z,5.00
2018-10-06T10:35:30.838Z,4.62
2018-10-06T10:38:00.264Z,4.85
2018-10-06T10:40:29.510Z,5.35
2018-10-06T10:42:58.768Z,4.70
2018-10-06T10:45:28.136Z,4.90
2018-10-06T10:47:57.395Z,4.40
2018-10-06T10:50:26.670Z,5.50
2018-10-06T10:52:55.955Z,5.08
2018-10-06T10:55:25.210Z,4.95
2018-10-06T10:57:54.555Z,4.40
2018-10-06T11:00:23.756Z,4.60
2018-10-06T11:02:52.986Z,4.17
2018-10-06T11:05:22.207Z,4.33
2018-10-06T11:07:51.487Z,4.03
2018-10-06T11:10:20.701Z,4.37
2018-10-06T11:12:50.094Z,4.20
2018-10-06T11:15:19.327Z,4.25
2018-10-06T11:17:48.627Z,4.37
2018-10-06T11:20:17.854Z,4.05
2018-10-06T11:22:47.119Z,4.70
2018-10-06T11:25:16.305Z,4.08
2018-10-06T11:27:45.536Z,4.25
2018-10-06T11:30:14.714Z,4.10
2018-10-06T11:32:43.954Z,4.35
2018-10-06T11:35:13.147Z,4.20
2018-10-06T11:37:42.556Z,4.20
2018-10-06T11:40:11.650Z,3.90
2018-10-06T11:42:40.906Z,3.60
2018-10-06T11:45:10.109Z,4.17
2018-10-06T11:47:39.347Z,4.05
2018-10-06T11:50:08.619Z,4.20
2018-10-06T11:52:37.802Z,3.67
2018-10-06T11:55:07.010Z,3.95
2018-10-06T11:57:36.232Z,4.25
2018-10-06T12:00:06.547Z,3.72
2018-10-06T12:02:35.685Z,3.35
2018-10-06T12:05:04.960Z,3.02
2018-10-06T12:07:34.166Z,3.50
2018-10-06T12:10:03.318Z,2.72
2018-10-06T12:12:32.522Z,2.55
2018-10-06T12:15:01.730Z,2.92
2018-10-06T12:17:31.010Z,3.37
2018-10-06T12:20:00.191Z,3.55
2018-10-06T12:22:29.488Z,2.90
2018-10-06T12:24:58.751Z,3.27
2018-10-06T12:27:27.991Z,3.00
2018-10-06T12:29:57.230Z,3.08
2018-10-06T12:32:26.437Z,3.12
2018-10-06T12:34:55.772Z,3.22
2018-10-06T12:37:24.966Z,2.83
2018-10-06T12:39:54.150Z,3.08
2018-10-06T12:44:56.131Z,2.87
2018-10-06T12:47:25.514Z,2.50
2018-10-06T12:49:54.697Z,3.33
2018-10-06T12:52:23.899Z,3.35
2018-10-06T12:54:53.077Z,3.27
2018-10-06T12:57:22.303Z,2.80
2018-10-06T12:59:51.583Z,2.85
2018-10-06T13:02:20.761Z,3.40
2018-10-06T13:04:50.082Z,3.25
2018-10-06T13:07:19.299Z,3.95
2018-10-06T13:09:48.547Z,3.50
2018-10-06T13:12:17.758Z,3.75
2018-10-06T13:14:47.097Z,3.50
2018-10-06T13:17:16.298Z,3.37
2018-10-06T13:19:45.598Z,3.10
2018-10-06T13:22:14.831Z,2.83
2018-10-06T13:24:44.035Z,3.35
2018-10-06T13:27:13.345Z,2.90
2018-10-06T13:29:42.571Z,3.40
2018-10-06T13:32:11.819Z,3.10
2018-10-06T13:34:41.084Z,2.87
2018-10-06T13:37:10.303Z,3.75
2018-10-06T13:39:39.498Z,2.42
2018-10-06T13:42:08.699Z,2.30
2018-10-06T13:44:37.907Z,2.60
2018-10-06T13:47:07.225Z,2.85
2018-10-06T13:49:36.444Z,2.25
2018-10-06T13:52:05.695Z,2.50
2018-10-06T13:54:34.978Z,2.00
2018-10-06T13:57:04.278Z,2.55
2018-10-06T13:59:33.532Z,2.20
2018-10-06T14:02:02.746Z,1.70
2018-10-06T14:04:32.134Z,1.75
2018-10-06T14:07:01.373Z,1.75
2018-10-06T14:09:30.677Z,1.98
2018-10-06T14:11:59.855Z,1.87
2018-10-06T14:14:29.078Z,1.67
2018-10-06T14:16:58.273Z,1.37
2018-10-06T14:19:27.549Z,1.40
2018-10-06T14:21:56.765Z,1.40
2018-10-06T14:24:26.117Z,1.35
2018-10-06T14:26:55.319Z,1.37
2018-10-06T14:29:25.434Z,1.50
2018-10-06T14:31:54.683Z,1.65
2018-10-06T14:34:23.902Z,1.90
2018-10-06T14:36:53.082Z,1.65
2018-10-06T14:39:22.281Z,1.47
2018-10-06T14:41:51.485Z,1.50
2018-10-06T14:44:20.766Z,1.80
2018-10-06T14:46:49.967Z,1.60
2018-10-06T14:49:19.225Z,1.77
2018-10-06T14:51:48.431Z,1.60
2018-10-06T14:54:17.727Z,1.50
2018-10-06T14:56:46.925Z,1.82
2018-10-06T14:59:16.134Z,1.35
2018-10-06T15:01:45.331Z,1.70
2018-10-06T15:04:14.563Z,1.30
2018-10-06T15:06:44.991Z,1.70
2018-10-06T15:09:14.202Z,1.65
2018-10-06T15:11:43.418Z,1.62
2018-10-06T15:14:12.645Z,1.77
2018-10-06T15:16:41.829Z,1.45
2018-10-06T15:19:11.129Z,1.47
2018-10-06T15:21:40.463Z,1.40
2018-10-06T15:24:09.704Z,1.30
2018-10-06T15:26:38.899Z,1.40
2018-10-06T15:29:08.073Z,1.85
2018-10-06T15:31:37.270Z,1.40
2018-10-06T15:34:06.578Z,1.50
2018-10-06T15:36:35.799Z,1.67
2018-10-06T15:39:07.768Z,1.35
2018-10-06T15:41:36.966Z,1.30
2018-10-06T15:44:06.297Z,1.62
2018-10-06T15:46:35.584Z,1.40
2018-10-06T15:49:04.801Z,1.62
2018-10-06T15:51:33.982Z,1.40
2018-10-06T15:54:03.241Z,1.72
2018-10-06T15:56:32.474Z,1.50
2018-10-06T15:59:01.719Z,1.80
2018-10-06T16:01:30.903Z,1.50
2018-10-06T16:04:00.135Z,1.80
2018-10-06T16:06:29.381Z,2.10
2018-10-06T16:08:58.640Z,1.80
2018-10-06T16:11:27.833Z,1.75
2018-10-06T16:13:57.035Z,2.10
2018-10-06T16:16:26.279Z,1.60
2018-10-06T16:18:55.487Z,1.82
2018-10-06T16:21:24.786Z,2.00
2018-10-06T16:23:53.987Z,2.60
2018-10-06T16:26:23.196Z,1.85
2018-10-06T16:28:52.422Z,2.15
2018-10-06T16:31:21.606Z,2.27
2018-10-06T16:33:50.831Z,2.80
2018-10-06T16:36:20.014Z,2.95
2018-10-06T16:38:49.224Z,4.10
2018-10-06T16:41:18.710Z,2.92
2018-10-06T16:43:47.914Z,2.90
2018-10-06T16:46:17.092Z,3.15
2018-10-06T16:48:46.311Z,3.08
2018-10-06T16:51:15.494Z,3.15
2018-10-06T16:53:44.719Z,3.00
2018-10-06T16:56:14.571Z,3.50
2018-10-06T16:58:43.840Z,3.15
2018-10-06T17:01:13.075Z,3.22
2018-10-06T17:03:42.315Z,3.90
2018-10-06T17:06:11.522Z,3.72
2018-10-06T17:08:40.766Z,3.62
2018-10-06T17:11:09.981Z,3.70
2018-10-06T17:13:39.171Z,3.27
2018-10-06T17:16:08.801Z,3.30
2018-10-06T17:18:38.042Z,3.67
2018-10-06T17:21:07.246Z,3.65
2018-10-06T17:23:41.867Z,3.45
2018-10-06T17:26:11.148Z,3.92
2018-10-06T17:28:40.474Z,3.47
2018-10-06T17:31:09.770Z,4.20
2018-10-06T17:33:38.910Z,4.08
2018-10-06T17:36:08.148Z,3.85
2018-10-06T17:38:37.366Z,4.40
2018-10-06T17:41:06.596Z,3.80
2018-10-06T17:43:35.823Z,4.40
2018-10-06T17:46:05.031Z,4.22
2018-10-06T17:48:34.229Z,4.40
2018-10-06T17:51:03.470Z,3.87
2018-10-06T17:53:32.692Z,4.33
2018-10-06T17:56:02.003Z,4.03
2018-10-06T17:58:31.238Z,3.98
2018-10-06T18:01:00.503Z,4.75
2018-10-06T18:03:29.715Z,5.10
2018-10-06T18:05:58.923Z,4.12
2018-10-06T18:08:28.274Z,4.60
2018-10-06T18:10:57.506Z,4.42
2018-10-06T18:13:26.708Z,4.70
2018-10-06T18:15:55.917Z,4.40
2018-10-06T18:18:25.102Z,4.85
2018-10-06T18:20:54.433Z,4.10
2018-10-06T18:23:23.590Z,4.50
2018-10-06T18:25:52.819Z,4.83
2018-10-06T18:28:22.014Z,4.70
2018-10-06T18:30:51.264Z,3.92
2018-10-06T18:33:20.530Z,4.70
2018-10-06T18:35:49.759Z,4.40
2018-10-06T18:38:18.950Z,4.20
2018-10-06T18:40:48.166Z,4.60
2018-10-06T18:43:17.452Z,4.55
2018-10-06T18:45:46.672Z,4.35
2018-10-06T18:48:15.861Z,5.33
2018-10-06T18:50:45.078Z,6.12
2018-10-06T18:53:14.265Z,6.22
2018-10-06T18:55:43.483Z,6.85
2018-10-06T18:58:12.681Z,7.78
2018-10-06T19:00:42.052Z,9.85
2018-10-06T19:03:11.257Z,11.40
2018-10-06T19:05:40.507Z,11.03
2018-10-06T19:08:09.710Z,10.50
2018-10-06T19:10:38.995Z,10.40
2018-10-06T19:13:08.241Z,8.80
2018-10-06T19:15:37.509Z,9.85
2018-10-06T19:18:06.841Z,7.90
2018-10-06T19:20:36.055Z,9.80
2018-10-06T19:23:05.293Z,7.53
2018-10-06T19:25:34.585Z,8.25
2018-10-06T19:28:03.734Z,8.03
2018-10-06T19:30:32.938Z,7.55
2018-10-06T19:33:02.127Z,8.08
2018-10-06T19:35:31.365Z,8.28
2018-10-06T19:38:00.606Z,8.88
2018-10-06T19:40:29.907Z,9.18
2018-10-06T19:42:59.187Z,10.58
2018-10-06T19:45:28.507Z,11.33
2018-10-06T19:47:57.763Z,11.95
2018-10-06T19:50:26.991Z,13.93
2018-10-06T19:52:56.243Z,17.20
2018-10-06T19:55:25.434Z,19.05
2018-10-06T19:57:54.607Z,17.07
2018-10-06T20:00:23.808Z,14.05
2018-10-06T20:02:53.017Z,11.10
2018-10-06T20:05:22.230Z,9.70
2018-10-06T20:07:51.815Z,8.40
2018-10-06T20:10:21.022Z,7.37
2018-10-06T20:12:50.199Z,7.20
2018-10-06T20:15:19.387Z,8.60
2018-10-06T20:17:48.632Z,8.15
2018-10-06T20:20:17.855Z,7.92
2018-10-06T20:22:47.023Z,8.65
2018-10-06T20:25:16.257Z,7.78
2018-10-06T20:27:45.474Z,7.78
2018-10-06T20:30:14.652Z,7.45
2018-10-06T20:32:43.897Z,8.13
2018-10-06T20:35:13.110Z,7.87
2018-10-06T20:37:42.307Z,8.10
2018-10-06T20:40:11.566Z,7.80
2018-10-06T20:42:40.831Z,7.75
2018-10-06T20:45:10.010Z,8.38
2018-10-06T20:47:45.587Z,7.75
2018-10-06T20:50:14.852Z,7.35
2018-10-06T20:52:44.210Z,8.15
2018-10-06T20:55:13.434Z,8.10
2018-10-06T20:57:42.646Z,8.50
2018-10-06T21:00:11.801Z,8.45
2018-10-06T21:02:41.010Z,9.20
2018-10-06T21:05:10.296Z,8.30
2018-10-06T21:07:39.490Z,8.40
2018-10-06T21:10:15.045Z,8.08
2018-10-06T21:12:44.271Z,8.00
2018-10-06T21:15:13.518Z,8.70
2018-10-06T21:17:42.781Z,8.98
2018-10-06T21:20:11.959Z,8.35
2018-10-06T21:22:41.158Z,8.85
2018-10-06T21:25:10.373Z,8.93
2018-10-06T21:27:39.596Z,9.75
2018-10-06T21:30:08.800Z,9.13
2018-10-06T21:32:38.016Z,8.78
2018-10-06T21:35:07.203Z,8.78
2018-10-06T21:37:36.403Z,9.45
2018-10-06T21:40:05.642Z,8.88
2018-10-06T21:42:34.838Z,7.80
2018-10-06T21:45:04.039Z,8.90
2018-10-06T21:47:33.243Z,8.95
2018-10-06T21:50:02.467Z,9.88
2018-10-06T21:52:31.819Z,8.53
2018-10-06T21:55:01.078Z,9.15
2018-10-06T21:57:30.276Z,8.83
2018-10-06T21:59:59.459Z,8.40
2018-10-06T22:02:28.674Z,8.73
2018-10-06T22:04:57.865Z,8.90
2018-10-06T22:07:27.050Z,8.30
2018-10-06T22:09:56.239Z,8.55
2018-10-06T22:12:28.327Z,8.38
2018-10-06T22:14:57.510Z,8.43
2018-10-06T22:17:26.763Z,8.43
2018-10-06T22:19:55.960Z,8.80
2018-10-06T22:22:25.159Z,9.30
2018-10-06T22:24:54.334Z,8.25
2018-10-06T22:27:23.545Z,9.05
2018-10-06T22:29:52.806Z,8.43
2018-10-06T22:32:22.059Z,8.45
2018-10-06T22:34:51.240Z,8.13
2018-10-06T22:37:20.443Z,8.23
2018-10-06T22:39:49.654Z,8.60
2018-10-06T22:42:18.838Z,8.28
2018-10-06T22:44:48.047Z,8.65
2018-10-06T22:47:17.251Z,9.15
2018-10-06T22:49:46.447Z,8.78
2018-10-06T22:52:15.642Z,8.58
2018-10-06T22:54:44.832Z,8.68
2018-10-06T22:57:14.013Z,8.65
2018-10-06T22:59:43.183Z,8.98
2018-10-06T23:02:12.379Z,8.58
2018-10-06T23:04:41.558Z,8.48
2018-10-06T23:07:10.753Z,8.45
2018-10-06T23:09:39.933Z,8.70
2018-10-06T23:12:09.143Z,9.40
2018-10-06T23:14:38.359Z,8.88
2018-10-06T23:17:07.546Z,8.85
2018-10-06T23:19:36.732Z,9.13
2018-10-06T23:22:05.942Z,8.78
2018-10-06T23:24:35.111Z,8.43
2018-10-06T23:27:04.340Z,8.55
2018-10-06T23:29:33.532Z,8.83
2018-10-06T23:32:02.779Z,8.43
2018-10-06T23:34:32.002Z,8.83
2018-10-06T23:37:01.238Z,9.00
2018-10-06T23:39:30.435Z,9.25
2018-10-06T23:41:59.621Z,8.68
2018-10-06T23:44:28.827Z,8.65
2018-10-06T23:47:04.566Z,8.63
2018-10-06T23:49:33.831Z,8.80
2018-10-06T23:52:03.030Z,8.50
2018-10-06T23:54:32.350Z,8.53
2018-10-06T23:57:01.565Z,8.30
2018-10-06T23:59:30.751Z,9.20
